createdAt,value
2022-09-09T00:02:22.328Z,12.80
2022-09-09T00:04:57.467Z,9.32
2022-09-09T00:07:27.516Z,13.30
2022-09-09T00:10:01.674Z,16.20
2022-09-09T00:12:36.684Z,15.35
2022-09-09T00:15:07.755Z,10.25
2022-09-09T00:17:40.901Z,10.45
2022-09-09T00:20:13.934Z,11.10
2022-09-09T00:22:38.566Z,13.75
2022-09-09T00:25:12.652Z,14.50
2022-09-09T00:27:42.728Z,13.40
2022-09-09T00:30:20.817Z,14.07
2022-09-09T00:32:45.684Z,15.93
2022-09-09T00:35:20.290Z,14.15
2022-09-09T00:37:44.555Z,11.98
2022-09-09T00:40:24.623Z,9.55
2022-09-09T00:42:48.261Z,10.35
2022-09-09T00:45:40.280Z,10.95
2022-09-09T00:48:10.639Z,14.68
2022-09-09T00:50:48.268Z,12.88
2022-09-09T00:53:30.989Z,11.40
2022-09-09T00:56:06.255Z,13.10
2022-09-09T00:58:29.909Z,16.00
2022-09-09T01:01:01.147Z,13.35
2022-09-09T01:03:35.757Z,13.18
2022-09-09T01:06:19.031Z,13.30
2022-09-09T01:09:05.905Z,13.48
2022-09-09T01:11:39.227Z,11.20
2022-09-09T01:14:14.344Z,10.45
2022-09-09T01:16:40.481Z,12.10
2022-09-09T01:19:05.384Z,13.70
2022-09-09T01:21:42.286Z,11.02
2022-09-09T01:24:29.895Z,13.48
2022-09-09T01:27:08.042Z,10.40
2022-09-09T01:29:32.084Z,11.65
2022-09-09T01:31:58.269Z,9.77
2022-09-09T01:34:23.707Z,14.13
2022-09-09T01:36:54.027Z,14.10
2022-09-09T01:39:17.751Z,13.60
2022-09-09T01:41:42.712Z,9.82
2022-09-09T01:44:12.233Z,8.88
2022-09-09T01:46:38.030Z,13.95
2022-09-09T01:49:08.054Z,13.00
2022-09-09T01:51:32.091Z,13.50
2022-09-09T01:53:59.262Z,10.50
2022-09-09T01:56:38.412Z,13.52
2022-09-09T01:59:25.367Z,11.43
2022-09-09T02:02:11.084Z,10.85
2022-09-09T02:04:44.459Z,11.00
2022-09-09T02:07:30.521Z,14.63
2022-09-09T02:10:03.713Z,9.27
2022-09-09T02:12:29.980Z,14.57
2022-09-09T02:15:03.471Z,9.07
2022-09-09T02:17:38.605Z,14.05
2022-09-09T02:20:11.123Z,11.80
2022-09-09T02:22:51.762Z,11.35
2022-09-09T02:25:20.787Z,11.20
2022-09-09T02:27:47.902Z,13.73
2022-09-09T02:30:14.824Z,15.43
2022-09-09T02:32:46.175Z,12.23
2022-09-09T02:35:16.512Z,9.68
2022-09-09T02:37:43.581Z,14.82
2022-09-09T02:40:11.407Z,12.68
2022-09-09T02:42:42.221Z,14.18
2022-09-09T02:45:07.296Z,15.40
2022-09-09T02:47:38.308Z,12.75
2022-09-09T02:50:15.744Z,11.25
2022-09-09T02:52:55.254Z,14.13
2022-09-09T02:55:27.314Z,10.73
2022-09-09T02:57:54.946Z,14.60
2022-09-09T03:00:25.350Z,11.65
2022-09-09T03:02:50.739Z,11.43
2022-09-09T03:05:14.455Z,15.82
2022-09-09T03:07:38.232Z,14.25
2022-09-09T03:10:01.809Z,15.93
2022-09-09T03:12:25.375Z,11.68
2022-09-09T03:14:49.067Z,10.70
2022-09-09T03:17:12.939Z,13.95
2022-09-09T03:19:45.081Z,13.40
2022-09-09T03:22:12.264Z,10.02
2022-09-09T03:24:38.721Z,13.35
2022-09-09T03:27:02.608Z,14.18
2022-09-09T03:29:26.970Z,15.65
2022-09-09T03:31:54.020Z,13.68
2022-09-09T03:34:18.122Z,9.43
2022-09-09T03:36:43.791Z,12.77
2022-09-09T03:39:07.471Z,12.55
2022-09-09T03:41:33.067Z,9.73
2022-09-09T03:43:58.862Z,14.05
2022-09-09T03:46:27.874Z,13.23
2022-09-09T03:48:53.187Z,13.82
2022-09-09T03:51:17.915Z,14.05
2022-09-09T03:53:42.851Z,10.23
2022-09-09T03:56:08.038Z,13.55
2022-09-09T03:58:31.671Z,14.75
2022-09-09T04:01:05.864Z,11.88
2022-09-09T04:03:30.763Z,11.27
2022-09-09T04:05:54.592Z,13.90
2022-09-09T04:08:19.575Z,11.32
2022-09-09T04:10:46.991Z,10.20
2022-09-09T04:13:10.596Z,10.02
2022-09-09T04:15:36.591Z,9.98
2022-09-09T04:18:00.583Z,12.00
2022-09-09T04:20:24.495Z,12.40
2022-09-09T04:22:48.382Z,11.57
2022-09-09T04:25:12.015Z,9.88
2022-09-09T04:27:37.022Z,9.10
2022-09-09T04:30:00.821Z,11.90
2022-09-09T04:32:28.569Z,11.60
2022-09-09T04:34:52.142Z,11.00
2022-09-09T04:37:16.330Z,12.95
2022-09-09T04:39:40.282Z,11.57
2022-09-09T04:42:04.275Z,9.30
2022-09-09T04:44:29.578Z,13.10
2022-09-09T04:46:53.622Z,13.02
2022-09-09T04:49:17.975Z,8.88
2022-09-09T04:51:41.527Z,14.05
2022-09-09T04:54:06.120Z,11.15
2022-09-09T04:56:30.045Z,12.15
2022-09-09T04:58:56.445Z,12.50
2022-09-09T05:01:26.747Z,9.07
2022-09-09T05:03:55.407Z,10.82
2022-09-09T05:06:23.679Z,10.90
2022-09-09T05:08:51.924Z,10.85
2022-09-09T05:11:21.539Z,12.52
2022-09-09T05:13:45.475Z,11.90
2022-09-09T05:16:12.316Z,13.57
2022-09-09T05:18:38.031Z,11.75
2022-09-09T05:21:02.235Z,11.30
2022-09-09T05:23:26.711Z,12.18
2022-09-09T05:25:58.702Z,12.90
2022-09-09T05:28:23.098Z,11.65
2022-09-09T05:30:46.707Z,11.75
2022-09-09T05:33:10.423Z,11.18
2022-09-09T05:35:36.099Z,11.23
2022-09-09T05:38:02.918Z,11.60
2022-09-09T05:40:26.565Z,11.10
2022-09-09T05:42:50.387Z,12.68
2022-09-09T05:45:14.187Z,12.75
2022-09-09T05:47:38.255Z,11.93
2022-09-09T05:50:04.478Z,11.10
2022-09-09T05:52:29.791Z,11.02
2022-09-09T05:54:56.054Z,11.05
2022-09-09T05:57:20.489Z,11.10
2022-09-09T05:59:45.009Z,9.48
2022-09-09T06:02:11.104Z,9.68
2022-09-09T06:04:34.962Z,8.75
2022-09-09T06:07:00.012Z,8.55
2022-09-09T06:09:25.040Z,8.35
2022-09-09T06:11:48.717Z,7.95
2022-09-09T06:14:12.884Z,8.65
2022-09-09T06:16:38.909Z,9.43
2022-09-09T06:19:07.940Z,8.90
2022-09-09T06:21:37.116Z,8.25
2022-09-09T06:24:03.090Z,8.35
2022-09-09T06:26:29.908Z,9.70
2022-09-09T06:28:55.815Z,8.73
2022-09-09T06:31:24.125Z,9.55
2022-09-09T06:33:52.899Z,12.10
2022-09-09T06:36:20.251Z,7.15
2022-09-09T06:38:44.198Z,7.05
2022-09-09T06:41:11.839Z,7.22
2022-09-09T06:43:37.835Z,6.32
2022-09-09T06:46:04.791Z,6.00
2022-09-09T06:48:30.676Z,6.03
2022-09-09T06:51:02.871Z,4.85
2022-09-09T06:53:28.218Z,4.88
2022-09-09T06:55:52.101Z,3.30
2022-09-09T06:58:15.779Z,3.67
2022-09-09T07:00:40.792Z,3.50
2022-09-09T07:03:04.538Z,3.00
2022-09-09T07:05:28.108Z,3.42
2022-09-09T07:07:52.976Z,3.22
2022-09-09T07:10:17.761Z,3.40
2022-09-09T07:12:42.329Z,3.80
2022-09-09T07:15:09.362Z,3.33
2022-09-09T07:17:34.391Z,3.45
2022-09-09T07:19:58.327Z,3.40
2022-09-09T07:22:23.617Z,3.15
2022-09-09T07:24:47.130Z,3.30
2022-09-09T07:27:12.172Z,3.20
2022-09-09T07:29:35.885Z,3.47
2022-09-09T07:32:00.414Z,3.05
2022-09-09T07:34:30.998Z,3.13
2022-09-09T07:36:55.272Z,3.17
2022-09-09T07:39:19.407Z,2.95
2022-09-09T07:41:49.496Z,2.80
2022-09-09T07:44:19.390Z,3.30
2022-09-09T07:46:47.155Z,3.13
2022-09-09T07:49:15.142Z,3.25
2022-09-09T07:51:43.705Z,3.10
2022-09-09T07:54:10.641Z,2.85
2022-09-09T07:56:36.518Z,3.13
2022-09-09T07:59:02.189Z,2.90
2022-09-09T08:01:28.749Z,2.92
2022-09-09T08:03:59.870Z,2.45
2022-09-09T08:06:25.979Z,3.10
2022-09-09T08:08:52.905Z,3.08
2022-09-09T08:11:17.666Z,2.90
2022-09-09T08:13:41.827Z,2.97
2022-09-09T08:16:12.614Z,3.00
2022-09-09T08:18:38.766Z,3.15
2022-09-09T08:21:09.463Z,3.10
2022-09-09T08:23:33.838Z,2.83
2022-09-09T08:26:07.070Z,2.40
2022-09-09T08:28:32.075Z,2.60
2022-09-09T08:30:55.679Z,2.50
2022-09-09T08:33:20.155Z,2.13
2022-09-09T08:35:53.855Z,2.90
2022-09-09T08:38:17.753Z,2.47
2022-09-09T08:40:50.407Z,2.42
2022-09-09T08:43:18.546Z,2.30
2022-09-09T08:45:57.546Z,2.15
2022-09-09T08:48:42.750Z,2.40
2022-09-09T08:51:08.310Z,2.40
2022-09-09T08:53:42.970Z,2.13
2022-09-09T08:56:15.114Z,2.38
2022-09-09T08:59:04.139Z,2.45
2022-09-09T09:01:47.476Z,2.33
2022-09-09T09:04:36.250Z,2.25
2022-09-09T09:07:14.995Z,2.50
2022-09-09T09:09:50.575Z,2.03
2022-09-09T09:12:20.095Z,2.17
2022-09-09T09:14:48.486Z,2.42
2022-09-09T09:17:16.133Z,1.88
2022-09-09T09:19:42.975Z,2.10
2022-09-09T09:22:19.067Z,1.88
2022-09-09T09:24:53.527Z,2.20
2022-09-09T09:27:33.177Z,2.33
2022-09-09T09:30:23.861Z,1.88
2022-09-09T09:32:54.749Z,2.42
2022-09-09T09:35:19.736Z,2.05
2022-09-09T09:40:31.876Z,1.80
2022-09-09T09:42:59.547Z,1.73
2022-09-09T09:45:34.154Z,2.03
2022-09-09T09:48:07.483Z,1.92
2022-09-09T09:50:35.629Z,1.95
2022-09-09T09:53:02.006Z,1.88
2022-09-09T09:55:31.119Z,1.75
2022-09-09T09:57:55.353Z,1.60
2022-09-09T10:00:23.632Z,1.90
2022-09-09T10:02:57.385Z,1.60
2022-09-09T10:05:29.076Z,1.88
2022-09-09T10:08:05.906Z,1.80
2022-09-09T10:10:47.835Z,1.52
2022-09-09T10:13:19.504Z,1.67
2022-09-09T10:15:53.858Z,1.50
2022-09-09T10:18:40.043Z,1.50
2022-09-09T10:21:16.699Z,1.45
2022-09-09T10:23:57.055Z,1.60
2022-09-09T10:26:37.410Z,1.40
2022-09-09T10:29:29.524Z,1.40
2022-09-09T10:32:08.396Z,1.33
2022-09-09T10:34:57.083Z,1.88
2022-09-09T10:37:37.874Z,1.55
2022-09-09T10:40:11.116Z,1.30
2022-09-09T10:42:35.690Z,1.40
2022-09-09T10:45:13.349Z,1.73
2022-09-09T10:48:10.530Z,1.65
2022-09-09T10:51:03.973Z,1.30
2022-09-09T10:53:45.618Z,1.58
2022-09-09T10:56:15.046Z,1.30
2022-09-09T10:58:45.011Z,1.50
2022-09-09T11:01:18.349Z,1.17
2022-09-09T11:03:43.246Z,1.30
2022-09-09T11:06:15.116Z,1.15
2022-09-09T11:08:41.567Z,1.13
2022-09-09T11:11:10.553Z,0.90
2022-09-09T11:13:44.276Z,1.25
2022-09-09T11:16:21.924Z,1.13
2022-09-09T11:18:47.528Z,1.27
2022-09-09T11:21:24.516Z,1.67
2022-09-09T11:23:53.588Z,1.23
2022-09-09T11:26:23.897Z,1.27
2022-09-09T11:29:05.045Z,1.00
2022-09-09T11:31:47.656Z,1.15
2022-09-09T11:34:30.081Z,1.25
2022-09-09T11:37:21.742Z,1.52
2022-09-09T11:40:11.357Z,1.40
2022-09-09T11:42:35.167Z,1.27
2022-09-09T11:44:59.188Z,1.15
2022-09-09T11:47:30.532Z,1.35
2022-09-09T11:49:55.177Z,1.30
2022-09-09T11:52:27.723Z,0.90
2022-09-09T11:54:52.310Z,1.25
2022-09-09T11:57:29.593Z,0.90
2022-09-09T11:59:54.300Z,1.08
2022-09-09T12:02:25.356Z,1.02
2022-09-09T12:04:57.602Z,1.10
2022-09-09T12:07:37.015Z,0.90
2022-09-09T12:10:04.824Z,1.35
2022-09-09T12:12:35.246Z,1.30
2022-09-09T12:15:26.979Z,0.98
2022-09-09T12:17:52.785Z,1.25
2022-09-09T12:20:19.430Z,1.00
2022-09-09T12:22:59.360Z,1.08
2022-09-09T12:25:33.867Z,1.10
2022-09-09T12:28:08.848Z,1.30
2022-09-09T12:30:42.544Z,0.80
2022-09-09T12:33:14.961Z,1.10
2022-09-09T12:35:39.628Z,1.30
2022-09-09T12:38:08.025Z,1.00
2022-09-09T12:40:36.275Z,1.48
2022-09-09T12:43:02.207Z,1.15
2022-09-09T12:45:28.565Z,1.17
2022-09-09T12:47:57.247Z,1.02
2022-09-09T12:50:26.623Z,1.17
2022-09-09T12:52:52.248Z,1.20
2022-09-09T12:55:26.112Z,1.30
2022-09-09T12:57:51.850Z,1.13
2022-09-09T13:00:20.235Z,0.80
2022-09-09T13:02:53.220Z,1.30
2022-09-09T13:05:21.656Z,1.38
2022-09-09T13:07:45.599Z,1.08
2022-09-09T13:10:18.111Z,1.25
2022-09-09T13:12:50.759Z,0.90
2022-09-09T13:15:23.704Z,1.30
2022-09-09T13:17:54.790Z,1.00
2022-09-09T13:20:20.471Z,1.30
2022-09-09T13:22:44.059Z,1.30
2022-09-09T13:25:20.525Z,1.20
2022-09-09T13:27:58.446Z,0.98
2022-09-09T13:30:26.302Z,1.00
2022-09-09T13:32:49.888Z,0.90
2022-09-09T13:35:26.579Z,0.85
2022-09-09T13:37:50.186Z,1.02
2022-09-09T13:40:22.654Z,1.00
2022-09-09T13:42:47.746Z,1.13
2022-09-09T13:45:22.405Z,1.40
2022-09-09T13:47:46.294Z,0.98
2022-09-09T13:50:22.281Z,0.80
2022-09-09T13:52:46.419Z,0.90
2022-09-09T13:55:11.694Z,0.90
2022-09-09T13:57:35.252Z,1.27
2022-09-09T14:00:05.029Z,1.05
2022-09-09T14:02:32.292Z,1.10
2022-09-09T14:04:56.599Z,1.00
2022-09-09T14:07:21.489Z,1.00
2022-09-09T14:09:45.312Z,1.33
2022-09-09T14:12:11.454Z,1.05
2022-09-09T14:14:35.060Z,1.23
2022-09-09T14:16:58.819Z,0.98
2022-09-09T14:19:23.731Z,1.00
2022-09-09T14:21:47.339Z,1.10
2022-09-09T14:24:10.850Z,0.80
2022-09-09T14:26:34.481Z,1.00
2022-09-09T14:28:58.588Z,1.25
2022-09-09T14:31:22.736Z,1.17
2022-09-09T14:33:46.671Z,1.30
2022-09-09T14:36:11.874Z,1.20
2022-09-09T14:38:40.671Z,1.05
2022-09-09T14:41:04.859Z,1.30
2022-09-09T14:43:28.906Z,1.40
2022-09-09T14:45:52.547Z,1.10
2022-09-09T14:48:16.686Z,0.90
2022-09-09T14:50:41.571Z,1.13
2022-09-09T14:53:06.469Z,1.50
2022-09-09T14:55:30.523Z,0.93
2022-09-09T14:57:54.172Z,0.93
2022-09-09T15:00:18.125Z,1.25
2022-09-09T15:02:42.070Z,1.10
2022-09-09T15:05:06.375Z,0.98
2022-09-09T15:07:30.323Z,1.10
2022-09-09T15:09:55.403Z,1.27
2022-09-09T15:12:20.173Z,0.90
2022-09-09T15:14:43.808Z,1.15
2022-09-09T15:17:07.359Z,1.17
2022-09-09T15:19:30.934Z,1.20
2022-09-09T15:21:55.441Z,1.05
2022-09-09T15:24:19.047Z,1.30
2022-09-09T15:26:44.077Z,1.20
2022-09-09T15:29:08.479Z,0.85
2022-09-09T15:31:33.718Z,1.13
2022-09-09T15:34:01.786Z,0.80
2022-09-09T15:36:28.035Z,0.85
2022-09-09T15:38:52.772Z,0.85
2022-09-09T15:41:17.859Z,1.02
2022-09-09T15:43:47.710Z,0.98
2022-09-09T15:46:28.927Z,1.08
2022-09-09T15:48:54.369Z,1.20
2022-09-09T15:51:41.033Z,1.30
2022-09-09T15:54:02.255Z,1.52
2022-09-09T15:56:26.683Z,1.50
2022-09-09T15:58:53.014Z,1.40
2022-09-09T16:01:17.826Z,1.08
2022-09-09T16:03:45.660Z,1.42
2022-09-09T16:06:09.727Z,1.10
2022-09-09T16:08:35.222Z,1.33
2022-09-09T16:10:58.814Z,1.17
2022-09-09T16:13:22.419Z,1.50
2022-09-09T16:15:47.462Z,1.38
2022-09-09T16:18:11.042Z,1.15
2022-09-09T16:20:34.619Z,1.20
2022-09-09T16:22:58.374Z,1.20
2022-09-09T16:25:22.022Z,1.30
2022-09-09T16:27:45.586Z,1.15
2022-09-09T16:30:10.843Z,1.20
2022-09-09T16:32:36.381Z,1.58
2022-09-09T16:35:00.011Z,1.20
2022-09-09T16:37:23.646Z,1.20
2022-09-09T16:39:47.331Z,1.55
2022-09-09T16:42:11.674Z,1.42
2022-09-09T16:44:35.205Z,1.70
2022-09-09T16:47:01.011Z,1.70
2022-09-09T16:49:26.070Z,1.90
2022-09-09T16:51:54.159Z,1.70
2022-09-09T16:54:19.393Z,1.60
2022-09-09T16:56:45.282Z,1.70
2022-09-09T16:59:11.394Z,1.90
2022-09-09T17:01:38.447Z,1.63
2022-09-09T17:04:06.058Z,1.70
2022-09-09T17:06:32.483Z,1.80
2022-09-09T17:08:57.667Z,1.48
2022-09-09T17:11:21.764Z,1.88
2022-09-09T17:13:45.987Z,2.10
2022-09-09T17:16:10.579Z,4.38
2022-09-09T17:18:34.438Z,5.65
2022-09-09T17:20:58.194Z,3.67
2022-09-09T17:23:23.270Z,4.10
2022-09-09T17:25:47.089Z,3.30
2022-09-09T17:28:10.777Z,2.80
2022-09-09T17:30:37.671Z,2.65
2022-09-09T17:33:01.185Z,3.17
2022-09-09T17:35:24.828Z,2.75
2022-09-09T17:37:48.375Z,2.40
2022-09-09T17:40:14.740Z,2.15
2022-09-09T17:42:38.359Z,2.17
2022-09-09T17:45:02.204Z,2.08
2022-09-09T17:47:26.681Z,2.22
2022-09-09T17:49:50.288Z,2.15
2022-09-09T17:52:13.887Z,1.80
2022-09-09T17:54:37.789Z,2.20
2022-09-09T17:57:02.782Z,2.38
2022-09-09T17:59:26.584Z,2.20
2022-09-09T18:01:51.955Z,2.50
2022-09-09T18:04:18.361Z,2.20
2022-09-09T18:06:44.943Z,2.85
2022-09-09T18:09:13.246Z,2.65
2022-09-09T18:11:42.688Z,2.83
2022-09-09T18:14:07.683Z,2.72
2022-09-09T18:16:36.443Z,3.08
2022-09-09T18:19:00.855Z,4.18
2022-09-09T18:21:25.927Z,5.47
2022-09-09T18:23:52.239Z,4.75
2022-09-09T18:26:19.698Z,4.40
2022-09-09T18:28:44.959Z,4.22
2022-09-09T18:31:12.390Z,4.10
2022-09-09T18:33:38.370Z,4.22
2022-09-09T18:36:08.058Z,4.25
2022-09-09T18:38:35.685Z,4.18
2022-09-09T18:40:59.313Z,3.92
2022-09-09T18:43:23.284Z,3.97
2022-09-09T18:45:46.811Z,3.67
2022-09-09T18:48:12.763Z,3.58
2022-09-09T18:50:36.326Z,3.92
2022-09-09T18:52:59.953Z,3.38
2022-09-09T18:55:23.551Z,3.70
2022-09-09T18:57:48.339Z,3.55
2022-09-09T19:00:13.365Z,3.22
2022-09-09T19:02:36.979Z,3.45
2022-09-09T19:05:02.983Z,3.35
2022-09-09T19:07:26.593Z,3.40
2022-09-09T19:09:50.603Z,3.33
2022-09-09T19:12:14.240Z,3.45
2022-09-09T19:14:38.036Z,3.50
2022-09-09T19:17:01.660Z,3.60
2022-09-09T19:19:28.542Z,3.80
2022-09-09T19:21:55.263Z,3.35
2022-09-09T19:24:21.534Z,3.20
2022-09-09T19:26:50.416Z,3.00
2022-09-09T19:29:17.352Z,2.20
2022-09-09T19:31:48.859Z,2.00
2022-09-09T19:34:24.928Z,2.15
2022-09-09T19:36:48.890Z,2.10
2022-09-09T19:39:15.239Z,2.13
2022-09-09T19:41:39.103Z,2.15
2022-09-09T19:44:06.051Z,2.13
2022-09-09T19:46:31.365Z,2.10
2022-09-09T19:48:55.020Z,2.20
2022-09-09T19:51:22.055Z,1.90
2022-09-09T19:53:48.478Z,1.98
2022-09-09T19:56:14.510Z,2.03
2022-09-09T19:58:40.271Z,2.20
2022-09-09T20:01:10.602Z,1.90
2022-09-09T20:03:34.395Z,1.90
2022-09-09T20:05:58.150Z,1.90
2022-09-09T20:08:21.855Z,2.22
2022-09-09T20:10:53.375Z,1.85
2022-09-09T20:13:18.381Z,2.40
2022-09-09T20:15:42.032Z,3.90
2022-09-09T20:18:06.247Z,5.30
2022-09-09T20:20:30.272Z,3.28
2022-09-09T20:22:55.158Z,2.50
2022-09-09T20:25:18.717Z,2.70
2022-09-09T20:27:42.805Z,1.88
2022-09-09T20:30:09.982Z,1.77
2022-09-09T20:32:33.828Z,1.70
2022-09-09T20:34:58.092Z,1.73
2022-09-09T20:37:21.751Z,1.90
2022-09-09T20:39:46.436Z,1.65
2022-09-09T20:42:10.124Z,1.85
2022-09-09T20:44:33.800Z,1.75
2022-09-09T20:47:02.770Z,1.67
2022-09-09T20:49:26.343Z,1.58
2022-09-09T20:51:50.840Z,1.67
2022-09-09T20:54:17.575Z,1.70
2022-09-09T20:56:44.520Z,2.00
2022-09-09T20:59:10.295Z,1.98
2022-09-09T21:01:34.259Z,1.73
2022-09-09T21:04:00.173Z,1.85
2022-09-09T21:06:24.116Z,1.85
2022-09-09T21:08:48.082Z,1.90
2022-09-09T21:11:11.863Z,1.83
2022-09-09T21:13:37.451Z,1.70
2022-09-09T21:16:01.091Z,1.88
2022-09-09T21:18:24.869Z,1.70
2022-09-09T21:20:50.656Z,1.90
2022-09-09T21:23:16.143Z,1.80
2022-09-09T21:25:39.755Z,1.60
2022-09-09T21:28:04.010Z,2.10
2022-09-09T21:30:37.746Z,1.70
2022-09-09T21:33:04.126Z,1.63
2022-09-09T21:35:27.798Z,1.60
2022-09-09T21:37:52.875Z,1.80
2022-09-09T21:40:16.517Z,1.70
2022-09-09T21:42:40.218Z,2.53
2022-09-09T21:45:03.768Z,1.95
2022-09-09T21:47:27.322Z,1.85
2022-09-09T21:49:51.050Z,1.83
2022-09-09T21:52:15.722Z,1.80
2022-09-09T21:54:44.376Z,2.10
2022-09-09T21:57:07.939Z,2.20
2022-09-09T21:59:32.408Z,1.70
2022-09-09T22:01:56.111Z,2.55
2022-09-09T22:04:19.717Z,2.00
2022-09-09T22:06:43.285Z,2.13
2022-09-09T22:09:06.799Z,2.40
2022-09-09T22:11:31.814Z,2.00
2022-09-09T22:13:56.014Z,2.00
2022-09-09T22:16:22.170Z,1.85
2022-09-09T22:18:45.905Z,2.08
2022-09-09T22:21:11.784Z,2.25
2022-09-09T22:23:36.501Z,2.15
2022-09-09T22:26:00.415Z,1.90
2022-09-09T22:28:25.300Z,1.98
2022-09-09T22:30:48.927Z,1.85
2022-09-09T22:33:12.498Z,2.25
2022-09-09T22:35:42.406Z,2.20
2022-09-09T22:38:05.938Z,2.30
2022-09-09T22:40:29.978Z,1.98
2022-09-09T22:42:54.159Z,2.60
2022-09-09T22:45:19.926Z,1.98
2022-09-09T22:47:43.458Z,2.03
2022-09-09T22:50:08.657Z,2.70
2022-09-09T22:52:32.319Z,2.53
2022-09-09T22:54:56.320Z,2.42
2022-09-09T22:57:19.935Z,2.65
2022-09-09T22:59:43.479Z,2.33
2022-09-09T23:02:09.928Z,2.25
2022-09-09T23:04:33.438Z,2.30
2022-09-09T23:06:57.095Z,2.05
2022-09-09T23:09:20.789Z,2.95
2022-09-09T23:11:46.887Z,2.45
2022-09-09T23:14:12.896Z,2.30
2022-09-09T23:16:39.872Z,3.13
2022-09-09T23:19:04.905Z,2.20
2022-09-09T23:21:30.701Z,2.58
2022-09-09T23:23:55.571Z,2.33
2022-09-09T23:26:20.287Z,2.33
2022-09-09T23:28:43.843Z,2.53
2022-09-09T23:31:10.864Z,2.92
2022-09-09T23:33:36.723Z,2.47
2022-09-09T23:36:03.931Z,3.00
2022-09-09T23:38:28.405Z,2.80
2022-09-09T23:40:51.919Z,3.25
2022-09-09T23:43:15.440Z,3.42
2022-09-09T23:45:38.962Z,3.10
2022-09-09T23:48:03.362Z,3.47
2022-09-09T23:50:27.082Z,3.40
2022-09-09T23:52:52.345Z,3.20
2022-09-09T23:55:16.099Z,3.50
2022-09-09T23:57:39.631Z,3.20
